Terminal Aerodrome Forecast
Issued by NWS Paducah, KY

Home | Current Version | Previous Version | Text Only | Print | Product List | Glossary On
Versions: 1 2 3 4 5 6 7 8 9 10 11 12 13 14 15 16 17 18 19 20
980
FTUS43 KPAH 222245 AAC
TAFPAH
TAF AMD
KPAH 222245Z 2223/2318 03013G20KT P6SM -RA BKN029 OVC060
     FM230100 35010KT P6SM OVC050
     FM230200 34014G23KT P6SM OVC025=

USA.gov is the U.S. government's official web portal to all federal, state and local government web resources and services.